Main page
METAR-TAF:

METAR-TAF

Airports :

Oxford Airport

Oxford, England

latitude: 51-50-13N, longitude: 1-19-12W, elevation: 82 m

Current weather observation

The report was made 24 minutes ago, at 16:20 UTC
Wind 9 kt from the Northeast
Temperature 4°C
Humidity 87%
Pressure 1006 hPa
Visibility 10 km or more
Scattered clouds at a height of 1200 ft
Broken clouds at a height of 1600 ft
Overcast at a height of 1900 ft

METAR: EGTK 201620Z 05009KT 9999 SCT012 BKN016 OVC019 04/02 Q1006

Time: 16:44 (16:44 UTC)

Forecast

The report was made 43 minutes ago, at 16:01 UTC
Forecast valid from 20 at 16 UTC to 20 at 23 UTC
Wind 13 kt from the Northeast
Visibility 10 km or more
Broken clouds at a height of 2000 ft
Temporary
from 20 at 16 UTC to 20 at 23 UTC
Wind 16 kt from the Northeast with gusts up to 26 kt
Visibility: 7000 m
Broken clouds at a height of 1400 ft
rain showers

TAF: EGTK 201601Z 2016/2023 04013KT 9999 BKN020 TEMPO 2016/2023 05016G26KT 7000 SHRA BKN014

Weather observations and forecasts of more than 4000 airports (METAR and TAF reports).

The available stations are represented by yellow and red dots on the map.

Hover mouse over dot to see the name of the station.

Then click to see weather observations and forecasts.

To change the map : click on the green buttons with a black cross to zoom in, on the green button with a dash to zoom out, or on the green arrows for adjacent maps.


METAR-TAF: